createdAt,value
2018-07-05T00:02:13.849Z,4.23
2018-07-05T00:04:54.078Z,6.07
2018-07-05T00:07:34.224Z,4.00
2018-07-05T00:10:14.464Z,2.97
2018-07-05T00:12:54.872Z,7.33
2018-07-05T00:15:35.105Z,4.90
2018-07-05T00:18:15.495Z,4.10
2018-07-05T00:20:55.857Z,4.30
2018-07-05T00:23:36.296Z,4.27
2018-07-05T00:26:16.653Z,3.20
2018-07-05T00:28:56.899Z,3.50
2018-07-05T00:31:37.359Z,3.30
2018-07-05T00:34:17.802Z,2.93
2018-07-05T00:36:58.211Z,4.90
2018-07-05T00:39:38.452Z,4.67
2018-07-05T00:42:18.686Z,8.33
2018-07-05T00:44:59.015Z,5.53
2018-07-05T00:47:39.315Z,4.17
2018-07-05T00:50:19.847Z,4.47
2018-07-05T00:53:00.278Z,4.17
2018-07-05T00:55:40.790Z,3.27
2018-07-05T00:58:21.242Z,7.03
2018-07-05T01:00:55.535Z,4.30
2018-07-05T01:03:35.765Z,4.33
2018-07-05T01:06:16.073Z,6.53
2018-07-05T01:08:56.508Z,5.73
2018-07-05T01:11:36.908Z,4.67
2018-07-05T01:14:17.290Z,5.63
2018-07-05T01:16:57.659Z,6.13
2018-07-05T01:19:37.944Z,4.67
2018-07-05T01:22:18.395Z,4.23
2018-07-05T01:24:59.119Z,5.03
2018-07-05T01:27:39.554Z,5.37
2018-07-05T01:30:20.345Z,5.73
2018-07-05T01:33:00.771Z,4.70
2018-07-05T01:35:41.232Z,6.47
2018-07-05T01:38:21.445Z,6.00
2018-07-05T01:41:02.009Z,6.57
2018-07-05T01:43:42.479Z,5.77
2018-07-05T01:46:22.735Z,4.57
2018-07-05T01:49:03.087Z,6.63
2018-07-05T01:51:43.471Z,4.07
2018-07-05T01:54:23.879Z,6.63
2018-07-05T01:57:04.216Z,5.47
2018-07-05T01:59:44.530Z,6.37
2018-07-05T02:02:24.834Z,7.27
2018-07-05T02:05:05.302Z,4.37
2018-07-05T02:07:45.522Z,5.00
2018-07-05T02:10:25.810Z,5.73
2018-07-05T02:13:06.203Z,6.37
2018-07-05T02:15:46.648Z,4.83
2018-07-05T02:18:26.968Z,3.27
2018-07-05T02:21:07.314Z,6.27
2018-07-05T02:23:47.674Z,6.10
2018-07-05T02:26:28.074Z,4.07
2018-07-05T02:29:02.451Z,6.53
2018-07-05T02:31:42.790Z,5.00
2018-07-05T02:34:23.178Z,7.27
2018-07-05T02:37:03.642Z,7.13
2018-07-05T02:39:49.063Z,10.13
2018-07-05T02:42:29.398Z,4.33
2018-07-05T02:45:10.080Z,10.20
2018-07-05T02:47:50.401Z,4.97
2018-07-05T02:50:30.814Z,8.23
2018-07-05T02:53:11.332Z,5.27
2018-07-05T02:55:51.883Z,5.87
2018-07-05T02:58:32.569Z,6.47
2018-07-05T03:01:12.878Z,8.37
2018-07-05T03:03:53.352Z,5.73
2018-07-05T03:06:27.646Z,4.97
2018-07-05T03:09:08.007Z,5.87
2018-07-05T03:11:48.469Z,7.97
2018-07-05T03:14:28.881Z,7.40
2018-07-05T03:17:09.216Z,5.27
2018-07-05T03:19:49.587Z,7.97
2018-07-05T03:22:30.108Z,7.87
2018-07-05T03:25:10.404Z,5.27
2018-07-05T03:27:50.807Z,6.20
2018-07-05T03:30:31.223Z,5.90
2018-07-05T03:33:11.644Z,4.30
2018-07-05T03:35:51.990Z,5.50
2018-07-05T03:38:32.254Z,7.30
2018-07-05T03:41:12.647Z,6.07
2018-07-05T03:43:53.054Z,7.97
2018-07-05T03:46:33.262Z,5.93
2018-07-05T03:49:13.648Z,6.60
2018-07-05T03:51:53.803Z,6.20
2018-07-05T03:54:34.169Z,8.57
2018-07-05T03:57:14.642Z,6.73
2018-07-05T03:59:55.077Z,6.90
2018-07-05T04:02:35.468Z,7.30
2018-07-05T04:05:15.751Z,6.10
2018-07-05T04:07:56.203Z,5.87
2018-07-05T04:10:36.620Z,7.60
2018-07-05T04:13:16.875Z,8.53
2018-07-05T04:15:57.249Z,7.00
2018-07-05T04:18:37.578Z,8.67
2018-07-05T04:21:18.024Z,5.43
2018-07-05T04:23:58.611Z,8.10
2018-07-05T04:26:38.943Z,6.23
2018-07-05T04:29:19.271Z,7.13
2018-07-05T04:32:00.523Z,7.73
2018-07-05T04:34:41.400Z,6.53
2018-07-05T04:37:23.627Z,7.90
2018-07-05T04:40:05.520Z,7.63
2018-07-05T04:42:46.810Z,6.00
2018-07-05T04:47:45.522Z,6.90
2018-07-05T04:50:36.198Z,5.80
2018-07-05T04:53:17.040Z,6.33
2018-07-05T04:55:57.992Z,8.57
2018-07-05T04:58:39.153Z,7.47
2018-07-05T05:01:27.456Z,5.93
2018-07-05T05:04:11.181Z,8.20
2018-07-05T05:06:52.284Z,6.20
2018-07-05T05:09:33.548Z,7.23
2018-07-05T05:12:21.765Z,7.40
2018-07-05T05:14:58.736Z,5.67
2018-07-05T05:17:40.933Z,6.93
2018-07-05T05:20:24.421Z,13.00
2018-07-05T05:23:09.588Z,6.97
2018-07-05T05:25:50.645Z,6.90
2018-07-05T05:28:31.761Z,6.53
2018-07-05T05:31:12.152Z,6.63
2018-07-05T05:33:52.734Z,5.70
2018-07-05T05:36:33.256Z,7.63
2018-07-05T05:39:07.689Z,6.20
2018-07-05T05:41:48.091Z,6.87
2018-07-05T05:44:28.473Z,5.77
2018-07-05T05:47:08.726Z,5.97
2018-07-05T05:49:49.342Z,6.03
2018-07-05T05:52:29.645Z,5.93
2018-07-05T05:55:10.108Z,5.33
2018-07-05T05:57:50.530Z,5.47
2018-07-05T06:00:30.884Z,8.43
2018-07-05T06:03:11.124Z,5.17
2018-07-05T06:05:51.479Z,6.97
2018-07-05T06:08:31.813Z,5.87
2018-07-05T06:11:12.171Z,6.67
2018-07-05T06:13:52.596Z,5.13
2018-07-05T06:16:32.799Z,10.27
2018-07-05T06:19:13.120Z,6.03
2018-07-05T06:21:47.460Z,6.23
2018-07-05T06:24:28.453Z,4.70
2018-07-05T06:27:08.709Z,5.37
2018-07-05T06:29:49.288Z,6.77
2018-07-05T06:32:29.638Z,5.87
2018-07-05T06:35:10.125Z,4.30
2018-07-05T06:37:50.571Z,5.03
2018-07-05T06:40:30.980Z,4.73
2018-07-05T06:43:11.250Z,5.07
2018-07-05T06:45:51.494Z,6.77
2018-07-05T06:48:31.863Z,5.30
2018-07-05T06:51:12.269Z,5.87
2018-07-05T06:53:52.622Z,3.77
2018-07-05T06:56:32.760Z,5.43
2018-07-05T06:59:13.209Z,3.30
2018-07-05T07:01:53.616Z,4.80
2018-07-05T07:04:34.067Z,5.37
2018-07-05T07:07:08.713Z,3.50
2018-07-05T07:09:49.097Z,5.83
2018-07-05T07:12:29.753Z,3.43
2018-07-05T07:15:10.102Z,3.77
2018-07-05T07:17:50.276Z,3.43
2018-07-05T07:20:30.634Z,2.30
2018-07-05T07:23:10.995Z,3.97
2018-07-05T07:25:51.605Z,2.20
2018-07-05T07:28:31.948Z,2.20
2018-07-05T07:31:12.743Z,4.30
2018-07-05T07:33:53.240Z,7.43
2018-07-05T07:36:33.601Z,2.83
2018-07-05T07:39:14.095Z,3.17
2018-07-05T07:41:46.535Z,3.50
2018-07-05T07:44:14.853Z,2.17
2018-07-05T07:46:42.981Z,1.87
2018-07-05T07:49:11.105Z,3.80
2018-07-05T07:51:39.022Z,3.75
2018-07-05T07:54:07.021Z,2.27
2018-07-05T07:56:34.958Z,3.58
2018-07-05T07:59:02.866Z,2.37
2018-07-05T08:01:30.799Z,2.85
2018-07-05T08:03:58.792Z,3.17
2018-07-05T08:06:26.748Z,1.70
2018-07-05T08:08:54.694Z,5.47
2018-07-05T08:11:22.594Z,3.85
2018-07-05T08:13:50.800Z,2.75
2018-07-05T08:16:18.716Z,4.20
2018-07-05T08:18:47.402Z,1.67
2018-07-05T08:21:15.409Z,2.92
2018-07-05T08:23:43.459Z,2.12
2018-07-05T08:26:11.580Z,4.03
2018-07-05T08:28:39.504Z,4.20
2018-07-05T08:31:09.208Z,3.17
2018-07-05T08:33:38.049Z,5.78
2018-07-05T08:36:07.224Z,1.35
2018-07-05T08:38:46.964Z,2.92
2018-07-05T08:41:16.840Z,1.72
2018-07-05T08:43:51.750Z,1.62
2018-07-05T08:46:19.955Z,3.10
2018-07-05T08:48:48.009Z,3.55
2018-07-05T08:51:16.017Z,4.08
2018-07-05T08:53:43.948Z,3.12
2018-07-05T08:56:12.688Z,2.25
2018-07-05T08:58:44.101Z,3.10
2018-07-05T09:01:14.676Z,2.22
2018-07-05T09:06:26.719Z,5.07
2018-07-05T09:08:55.179Z,2.85
2018-07-05T09:11:26.371Z,1.20
2018-07-05T09:13:55.156Z,2.30
2018-07-05T09:18:57.766Z,2.62
2018-07-05T09:21:29.838Z,1.80
2018-07-05T09:25:34.924Z,1.77
2018-07-05T09:28:03.893Z,1.52
2018-07-05T09:30:33.148Z,2.62
2018-07-05T09:33:02.591Z,2.50
2018-07-05T09:35:33.494Z,2.22
2018-07-05T09:38:02.810Z,3.83
2018-07-05T09:40:38.662Z,12.65
2018-07-05T09:43:09.333Z,3.30
2018-07-05T09:48:21.285Z,2.33
2018-07-05T09:50:56.323Z,3.02
2018-07-05T09:53:26.440Z,2.25
2018-07-05T09:55:55.759Z,2.80
2018-07-05T09:58:24.430Z,3.33
2018-07-05T10:00:53.768Z,1.25
2018-07-05T10:03:27.180Z,2.50
2018-07-05T10:09:01.814Z,2.00
2018-07-05T10:11:29.777Z,2.90
2018-07-05T10:13:57.788Z,2.50
2018-07-05T10:16:25.633Z,2.47
2018-07-05T10:18:53.543Z,3.27
2018-07-05T10:21:21.476Z,2.87
2018-07-05T10:23:49.791Z,3.60
2018-07-05T10:26:17.700Z,6.58
2018-07-05T10:28:58.000Z,2.50
2018-07-05T10:31:38.340Z,5.37
2018-07-05T10:34:06.243Z,2.95
2018-07-05T10:36:34.145Z,2.25
2018-07-05T10:39:02.083Z,6.62
2018-07-05T10:41:42.316Z,3.55
2018-07-05T10:44:22.695Z,2.47
2018-07-05T10:47:03.155Z,3.05
2018-07-05T10:49:43.726Z,3.60
2018-07-05T10:52:24.041Z,5.58
2018-07-05T10:55:04.439Z,4.33
2018-07-05T10:57:44.706Z,3.00
2018-07-05T11:00:25.143Z,3.22
2018-07-05T11:03:05.449Z,2.77
2018-07-05T11:05:45.691Z,2.77
2018-07-05T11:08:26.100Z,2.98
2018-07-05T11:11:06.403Z,5.03
2018-07-05T11:13:46.778Z,2.80
2018-07-05T11:16:27.208Z,4.25
2018-07-05T11:19:07.707Z,5.22
2018-07-05T11:21:48.105Z,5.05
2018-07-05T11:24:28.440Z,1.92
2018-07-05T11:27:08.672Z,2.22
2018-07-05T11:29:49.667Z,2.50
2018-07-05T11:32:30.736Z,2.80
2018-07-05T11:35:11.212Z,3.15
2018-07-05T11:37:45.412Z,2.22
2018-07-05T11:40:25.558Z,3.62
2018-07-05T11:43:06.131Z,2.70
2018-07-05T11:45:46.251Z,2.02
2018-07-05T11:48:26.642Z,3.98
2018-07-05T11:51:07.253Z,2.33
2018-07-05T11:53:48.458Z,1.30
2018-07-05T11:56:28.880Z,3.27
2018-07-05T11:59:09.124Z,1.70
2018-07-05T12:01:49.911Z,3.00
2018-07-05T12:04:30.157Z,3.83
2018-07-05T12:07:10.639Z,4.17
2018-07-05T12:09:50.892Z,4.62
2018-07-05T12:12:31.364Z,2.37
2018-07-05T12:15:11.866Z,1.70
2018-07-05T12:17:52.316Z,2.98
2018-07-05T12:20:32.686Z,1.62
2018-07-05T12:23:13.146Z,2.25
2018-07-05T12:25:53.819Z,3.37
2018-07-05T12:28:34.075Z,3.12
2018-07-05T12:31:14.485Z,2.50
2018-07-05T12:33:54.853Z,1.57
2018-07-05T12:36:35.151Z,1.20
2018-07-05T12:39:15.580Z,3.52
2018-07-05T12:41:55.902Z,1.17
2018-07-05T12:44:36.341Z,3.22
2018-07-05T12:47:16.664Z,1.35
2018-07-05T12:49:56.929Z,4.70
2018-07-05T12:52:37.346Z,1.87
2018-07-05T12:55:17.661Z,1.55
2018-07-05T12:57:58.015Z,2.08
2018-07-05T13:00:38.381Z,3.80
2018-07-05T13:03:18.740Z,1.82
2018-07-05T13:05:59.048Z,4.77
2018-07-05T13:08:39.464Z,1.50
2018-07-05T13:11:13.829Z,2.05
2018-07-05T13:13:54.062Z,1.72
2018-07-05T13:16:34.385Z,1.53
2018-07-05T13:19:14.678Z,2.52
2018-07-05T13:21:55.082Z,2.60
2018-07-05T13:24:29.199Z,2.10
2018-07-05T13:27:09.362Z,1.67
2018-07-05T13:29:49.697Z,1.83
2018-07-05T13:32:29.907Z,2.33
2018-07-05T13:35:10.425Z,1.83
2018-07-05T13:37:44.822Z,1.57
2018-07-05T13:40:24.965Z,2.90
2018-07-05T13:43:05.383Z,2.40
2018-07-05T13:45:45.833Z,1.60
2018-07-05T13:48:26.235Z,1.67
2018-07-05T13:51:06.676Z,2.58
2018-07-05T13:53:46.936Z,2.95
2018-07-05T13:56:27.252Z,2.83
2018-07-05T13:59:07.552Z,1.72
2018-07-05T14:01:48.017Z,1.80
2018-07-05T14:04:28.083Z,3.52
2018-07-05T14:07:08.758Z,2.00
2018-07-05T14:09:49.249Z,3.40
2018-07-05T14:12:29.666Z,1.70
2018-07-05T14:15:10.129Z,5.27
2018-07-05T14:17:51.065Z,1.40
2018-07-05T14:20:31.456Z,1.92
2018-07-05T14:23:11.560Z,1.43
2018-07-05T14:25:51.847Z,1.85
2018-07-05T14:28:32.130Z,1.60
2018-07-05T14:31:06.507Z,1.82
2018-07-05T14:33:46.719Z,1.57
2018-07-05T14:36:27.119Z,2.50
2018-07-05T14:39:07.420Z,1.97
2018-07-05T14:41:47.770Z,4.40
2018-07-05T14:44:28.221Z,2.70
2018-07-05T14:47:08.456Z,2.70
2018-07-05T14:49:48.806Z,2.20
2018-07-05T14:52:29.267Z,2.53
2018-07-05T14:55:09.519Z,2.53
2018-07-05T14:57:49.936Z,2.50
2018-07-05T15:00:30.479Z,2.03
2018-07-05T15:03:10.759Z,3.00
2018-07-05T15:05:51.248Z,5.60
2018-07-05T15:08:31.667Z,2.10
2018-07-05T15:11:12.040Z,2.80
2018-07-05T15:13:52.399Z,2.03
2018-07-05T15:16:32.800Z,2.07
2018-07-05T15:19:13.097Z,2.20
2018-07-05T15:21:53.367Z,3.03
2018-07-05T15:24:33.638Z,3.67
2018-07-05T15:27:14.027Z,2.10
2018-07-05T15:29:54.277Z,2.17
2018-07-05T15:32:34.574Z,3.47
2018-07-05T15:35:14.955Z,3.73
2018-07-05T15:37:55.061Z,2.40
2018-07-05T15:40:35.621Z,3.00
2018-07-05T15:43:16.070Z,2.80
2018-07-05T15:45:56.402Z,2.50
2018-07-05T15:48:36.828Z,2.77
2018-07-05T15:51:17.106Z,2.93
2018-07-05T15:53:57.588Z,4.47
2018-07-05T15:56:32.057Z,4.63
2018-07-05T15:59:12.356Z,3.83
2018-07-05T16:01:52.970Z,4.07
2018-07-05T16:04:33.197Z,4.67
2018-07-05T16:07:13.560Z,4.80
2018-07-05T16:09:54.165Z,4.53
2018-07-05T16:12:34.669Z,7.83
2018-07-05T16:15:15.102Z,4.53
2018-07-05T16:17:55.538Z,5.67
2018-07-05T16:20:29.954Z,3.07
2018-07-05T16:23:10.352Z,5.97
2018-07-05T16:25:51.018Z,4.90
2018-07-05T16:28:31.548Z,4.43
2018-07-05T16:31:11.860Z,7.53
2018-07-05T16:33:52.376Z,11.73
2018-07-05T16:36:32.846Z,9.40
2018-07-05T16:39:13.326Z,13.43
2018-07-05T16:41:53.782Z,8.97
2018-07-05T16:44:33.997Z,9.90
2018-07-05T16:47:14.257Z,16.77
2018-07-05T16:49:54.572Z,8.33
2018-07-05T16:52:35.072Z,5.87
2018-07-05T16:55:15.362Z,5.27
2018-07-05T16:57:55.683Z,4.20
2018-07-05T17:00:30.077Z,3.97
2018-07-05T17:03:10.263Z,3.77
2018-07-05T17:05:50.565Z,5.40
2018-07-05T17:08:30.926Z,8.40
2018-07-05T17:11:11.167Z,69.03
2018-07-05T17:13:51.447Z,50.77
2018-07-05T17:16:31.800Z,13.70
2018-07-05T17:19:12.145Z,23.00
2018-07-05T17:21:52.388Z,21.07
2018-07-05T17:24:32.840Z,41.97
2018-07-05T17:27:13.158Z,32.33
2018-07-05T17:29:53.514Z,6.27
2018-07-05T17:32:33.764Z,21.90
2018-07-05T17:35:14.306Z,9.57
2018-07-05T17:37:48.567Z,4.00
2018-07-05T17:40:28.953Z,13.77
2018-07-05T17:43:09.560Z,6.60
2018-07-05T17:45:50.076Z,12.77
2018-07-05T17:48:30.587Z,16.83
2018-07-05T17:51:11.393Z,20.40
2018-07-05T17:53:52.101Z,3.40
2018-07-05T17:56:32.692Z,3.87
2018-07-05T17:59:13.335Z,5.00
2018-07-05T18:01:55.367Z,2.67
2018-07-05T18:04:36.605Z,4.13
2018-07-05T18:07:17.972Z,3.37
2018-07-05T18:09:59.155Z,4.33
2018-07-05T18:12:39.818Z,5.20
2018-07-05T18:15:20.125Z,3.13
2018-07-05T18:18:00.330Z,3.80
2018-07-05T18:20:41.270Z,2.37
2018-07-05T18:23:21.841Z,2.57
2018-07-05T18:26:02.465Z,3.50
2018-07-05T18:28:43.364Z,3.07
2018-07-05T18:31:23.842Z,3.60
2018-07-05T18:34:04.539Z,5.80
2018-07-05T18:36:45.167Z,3.43
2018-07-05T18:39:25.630Z,6.27
2018-07-05T18:42:06.331Z,5.17
2018-07-05T18:44:47.161Z,2.53
2018-07-05T18:47:28.025Z,2.40
2018-07-05T18:50:09.232Z,5.47
2018-07-05T18:52:50.018Z,5.37
2018-07-05T18:55:31.132Z,4.27
2018-07-05T18:58:11.507Z,2.67
2018-07-05T19:00:52.923Z,3.97
2018-07-05T19:03:33.799Z,4.13
2018-07-05T19:06:15.120Z,5.57
2018-07-05T19:08:55.853Z,4.80
2018-07-05T19:11:36.951Z,4.97
2018-07-05T19:14:18.843Z,3.53
2018-07-05T19:17:00.026Z,7.60
2018-07-05T19:19:35.766Z,3.87
2018-07-05T19:22:16.740Z,5.67
2018-07-05T19:24:57.709Z,4.50
2018-07-05T19:27:38.622Z,4.50
2018-07-05T19:30:13.610Z,5.00
2018-07-05T19:32:54.377Z,4.17
2018-07-05T19:35:34.788Z,3.20
2018-07-05T19:38:15.047Z,4.43
2018-07-05T19:40:55.233Z,3.77
2018-07-05T19:43:35.519Z,5.00
2018-07-05T19:46:16.350Z,3.60
2018-07-05T19:48:57.148Z,4.80
2018-07-05T19:51:38.204Z,5.00
2018-07-05T19:54:19.231Z,5.13
2018-07-05T19:57:00.207Z,5.77
2018-07-05T19:59:40.924Z,4.07
2018-07-05T20:02:22.991Z,5.20
2018-07-05T20:05:03.466Z,4.67
2018-07-05T20:07:43.963Z,6.23
2018-07-05T20:10:24.982Z,6.70
2018-07-05T20:13:05.735Z,6.37
2018-07-05T20:15:46.309Z,17.30
2018-07-05T20:18:27.978Z,11.70
2018-07-05T20:21:09.164Z,4.20
2018-07-05T20:23:49.701Z,6.33
2018-07-05T20:26:30.491Z,7.00
2018-07-05T20:29:11.468Z,4.83
2018-07-05T20:31:51.698Z,6.90
2018-07-05T20:34:32.025Z,4.00
2018-07-05T20:37:12.278Z,5.23
2018-07-05T20:39:52.595Z,4.40
2018-07-05T20:42:33.051Z,3.77
2018-07-05T20:45:13.328Z,5.77
2018-07-05T20:47:53.681Z,8.43
2018-07-05T20:50:34.141Z,3.60
2018-07-05T20:53:14.450Z,5.27
2018-07-05T20:55:54.760Z,9.70
2018-07-05T20:58:35.487Z,5.80
2018-07-05T21:01:15.833Z,5.70
2018-07-05T21:03:56.083Z,3.97
2018-07-05T21:06:37.543Z,6.70
2018-07-05T21:09:18.129Z,7.17
2018-07-05T21:11:58.542Z,4.60
2018-07-05T21:14:38.912Z,3.30
2018-07-05T21:17:13.364Z,6.50
2018-07-05T21:19:53.583Z,6.27
2018-07-05T21:22:34.072Z,4.27
2018-07-05T21:25:15.831Z,5.23
2018-07-05T21:27:50.105Z,3.23
2018-07-05T21:30:30.361Z,5.03
2018-07-05T21:33:10.632Z,4.00
2018-07-05T21:35:50.929Z,3.13
2018-07-05T21:38:31.184Z,3.90
2018-07-05T21:41:12.456Z,3.60
2018-07-05T21:43:53.889Z,5.00
2018-07-05T21:46:35.070Z,2.87
2018-07-05T21:49:15.543Z,2.43
2018-07-05T21:51:58.028Z,2.30
2018-07-05T21:54:38.837Z,2.17
2018-07-05T21:57:20.056Z,2.80
2018-07-05T22:00:01.276Z,3.60
2018-07-05T22:02:42.068Z,3.60
2018-07-05T22:05:23.564Z,2.50
2018-07-05T22:08:06.549Z,3.50
2018-07-05T22:10:47.096Z,2.97
2018-07-05T22:13:27.385Z,3.77
2018-07-05T22:16:17.620Z,4.30
2018-07-05T22:19:03.574Z,3.20
2018-07-05T22:21:50.274Z,2.60
2018-07-05T22:24:36.056Z,2.60
2018-07-05T22:27:21.787Z,2.20
2018-07-05T22:30:07.574Z,4.83
2018-07-05T22:32:47.988Z,2.80
2018-07-05T22:35:28.205Z,2.53
2018-07-05T22:38:08.526Z,2.57
2018-07-05T22:40:42.856Z,3.23
2018-07-05T22:43:23.097Z,2.43
2018-07-05T22:46:03.416Z,1.70
2018-07-05T22:48:43.712Z,1.90
2018-07-05T22:51:24.088Z,3.50
2018-07-05T22:54:04.352Z,1.63
2018-07-05T22:56:44.709Z,2.33
2018-07-05T22:59:25.085Z,4.50
2018-07-05T23:02:05.199Z,1.77
2018-07-05T23:04:45.454Z,1.30
2018-07-05T23:07:25.734Z,1.90
2018-07-05T23:10:06.232Z,1.67
2018-07-05T23:12:46.650Z,1.83
2018-07-05T23:15:27.042Z,2.70
2018-07-05T23:18:07.491Z,2.37
2018-07-05T23:20:47.756Z,2.47
2018-07-05T23:23:28.097Z,1.90
2018-07-05T23:26:08.658Z,5.27
2018-07-05T23:28:49.016Z,2.27
2018-07-05T23:31:29.388Z,1.37
2018-07-05T23:34:09.697Z,2.10
2018-07-05T23:36:50.084Z,1.07
2018-07-05T23:39:30.554Z,2.47
2018-07-05T23:42:10.869Z,1.23
2018-07-05T23:44:51.178Z,1.10
2018-07-05T23:47:31.267Z,0.90
2018-07-05T23:50:11.664Z,0.50
2018-07-05T23:52:52.052Z,0.90
2018-07-05T23:55:32.265Z,0.50
2018-07-05T23:58:12.747Z,0.50
